createdAt,value
2023-03-14T00:00:57.740Z,1780.00
2023-03-14T00:04:57.656Z,1775.00
2023-03-14T00:08:57.598Z,1779.00
2023-03-14T00:12:57.514Z,1767.00
2023-03-14T00:16:57.459Z,1765.00
2023-03-14T00:20:57.365Z,1763.00
2023-03-14T00:24:57.326Z,1754.00
2023-03-14T00:28:57.248Z,1743.00
2023-03-14T00:32:57.217Z,1746.00
2023-03-14T00:36:57.122Z,1744.00
2023-03-14T00:40:57.224Z,1732.00
2023-03-14T00:44:57.042Z,1728.00
2023-03-14T00:48:57.035Z,1718.00
2023-03-14T00:52:56.954Z,1711.00
2023-03-14T00:56:56.946Z,1711.00
2023-03-14T01:00:56.877Z,1708.00
2023-03-14T01:04:56.840Z,1701.00
2023-03-14T01:08:56.778Z,1694.00
2023-03-14T01:12:56.764Z,1689.00
2023-03-14T01:16:56.690Z,1687.00
2023-03-14T01:20:56.664Z,1680.00
2023-03-14T01:24:56.610Z,1679.00
2023-03-14T01:28:56.576Z,1670.00
2023-03-14T01:32:56.577Z,1660.00
2023-03-14T01:36:56.530Z,1660.00
2023-03-14T01:40:56.474Z,1654.00
2023-03-14T01:44:56.526Z,1652.00
2023-03-14T01:48:56.432Z,1644.00
2023-03-14T01:52:56.386Z,1638.00
2023-03-14T01:56:56.359Z,1636.00
2023-03-14T02:00:56.392Z,1626.00
2023-03-14T02:04:56.349Z,1620.00
2023-03-14T02:08:56.319Z,1613.00
2023-03-14T02:12:56.297Z,1612.00
2023-03-14T02:16:56.267Z,1604.00
2023-03-14T02:20:56.255Z,1603.00
2023-03-14T02:24:56.212Z,1588.00
2023-03-14T02:28:56.228Z,1587.00
2023-03-14T02:32:56.298Z,1580.00
2023-03-14T02:36:56.172Z,1573.00
2023-03-14T02:40:56.172Z,1572.00
2023-03-14T02:44:56.120Z,1566.00
2023-03-14T02:48:56.127Z,1562.00
2023-03-14T02:52:56.115Z,1553.00
2023-03-14T02:56:56.060Z,1551.00
2023-03-14T03:00:56.134Z,1545.00
2023-03-14T03:04:56.042Z,1540.00
2023-03-14T03:08:56.017Z,1534.00
2023-03-14T03:12:56.068Z,1531.00
2023-03-14T03:16:56.034Z,1523.00
2023-03-14T03:20:56.028Z,1523.00
2023-03-14T03:24:56.266Z,1515.00
2023-03-14T03:28:55.970Z,1512.00
2023-03-14T03:32:56.080Z,1507.00
2023-03-14T03:36:55.901Z,1505.00
2023-03-14T03:40:55.944Z,1499.00
2023-03-14T03:44:55.921Z,1491.00
2023-03-14T03:48:55.946Z,1484.00
2023-03-14T03:52:55.956Z,1483.00
2023-03-14T03:56:55.914Z,1475.00
2023-03-14T04:00:55.909Z,1471.00
2023-03-14T04:04:55.906Z,1471.00
2023-03-14T04:08:55.999Z,1458.00
2023-03-14T04:12:55.891Z,1453.00
2023-03-14T04:16:55.927Z,1450.00
2023-03-14T04:20:55.939Z,1445.00
2023-03-14T04:24:55.972Z,1441.00
2023-03-14T04:28:55.946Z,1435.00
2023-03-14T04:32:56.069Z,1439.00
2023-03-14T04:36:56.250Z,1427.00
2023-03-14T04:40:55.979Z,1421.00
2023-03-14T04:44:55.986Z,1419.00
2023-03-14T04:48:56.005Z,1415.00
2023-03-14T04:52:56.045Z,1415.00
2023-03-14T04:56:56.062Z,1405.00
2023-03-14T05:00:56.091Z,1406.00
2023-03-14T05:04:56.139Z,1401.00
2023-03-14T05:08:56.122Z,1398.00
2023-03-14T05:12:56.197Z,1386.00
2023-03-14T05:16:56.233Z,1387.00
2023-03-14T05:20:56.258Z,1384.00
2023-03-14T05:24:56.304Z,1383.00
2023-03-14T05:28:56.321Z,1375.00
2023-03-14T05:32:56.450Z,1366.00
2023-03-14T05:36:56.426Z,1360.00
2023-03-14T05:40:56.417Z,1362.00
2023-03-14T05:44:56.475Z,1353.00
2023-03-14T05:48:56.494Z,1349.00
2023-03-14T05:52:56.542Z,1356.00
2023-03-14T05:56:56.550Z,1349.00
2023-03-14T06:00:56.536Z,1350.00
2023-03-14T06:04:56.604Z,1352.00
2023-03-14T06:08:56.564Z,1347.00
2023-03-14T06:12:56.610Z,1341.00
2023-03-14T06:16:56.712Z,1342.00
2023-03-14T06:20:56.653Z,1336.00
2023-03-14T06:24:56.712Z,1340.00
2023-03-14T06:28:56.690Z,1329.00
2023-03-14T06:32:56.807Z,1325.00
2023-03-14T06:36:56.851Z,1350.00
2023-03-14T06:40:56.835Z,1342.00
2023-03-14T06:44:56.756Z,1424.00
2023-03-14T06:48:56.844Z,1472.00
2023-03-14T06:52:56.836Z,1592.00
2023-03-14T06:56:56.838Z,1684.00
2023-03-14T07:00:56.513Z,1833.00
2023-03-14T07:04:56.425Z,1927.00
2023-03-14T07:08:56.862Z,2008.00
2023-03-14T07:12:56.193Z,2100.00
2023-03-14T07:16:56.012Z,2206.00
2023-03-14T07:20:55.806Z,2276.00
2023-03-14T07:24:55.614Z,2346.00
2023-03-14T07:28:55.394Z,2447.00
2023-03-14T07:32:55.253Z,2495.00
2023-03-14T07:36:55.032Z,2546.00
2023-03-14T07:40:54.842Z,2599.00
2023-03-14T07:44:54.601Z,2657.00
2023-03-14T07:48:54.904Z,2692.00
2023-03-14T07:52:54.384Z,2712.00
2023-03-14T07:56:53.977Z,2703.00
2023-03-14T08:00:53.841Z,2733.00
2023-03-14T08:04:53.773Z,2745.00
2023-03-14T08:08:53.952Z,2768.00
2023-03-14T08:12:53.516Z,2776.00
2023-03-14T08:16:53.328Z,2849.00
2023-03-14T08:20:53.214Z,2849.00
2023-03-14T08:24:53.064Z,2863.00
2023-03-14T08:28:52.862Z,2886.00
2023-03-14T08:32:52.675Z,2909.00
2023-03-14T08:36:52.418Z,2908.00
2023-03-14T08:40:52.404Z,2908.00
2023-03-14T08:44:52.388Z,2836.00
2023-03-14T08:48:51.891Z,2793.00
2023-03-14T08:52:51.845Z,2099.00
2023-03-14T08:56:51.893Z,2444.00
2023-03-14T09:00:51.886Z,2215.00
2023-03-14T09:04:51.911Z,2191.00
2023-03-14T09:08:51.917Z,2010.00
2023-03-14T09:12:51.966Z,1978.00
2023-03-14T09:16:51.843Z,1796.00
2023-03-14T09:20:51.611Z,1902.00
2023-03-14T09:24:51.452Z,1581.00
2023-03-14T09:28:51.268Z,1823.00
2023-03-14T09:32:51.107Z,1906.00
2023-03-14T09:36:50.885Z,1967.00
2023-03-14T09:40:50.925Z,2016.00
2023-03-14T09:44:50.496Z,2024.00
2023-03-14T09:48:50.389Z,2048.00
2023-03-14T09:52:50.440Z,2041.00
2023-03-14T09:56:49.849Z,2025.00
2023-03-14T10:00:49.795Z,2020.00
2023-03-14T10:04:49.455Z,2005.00
2023-03-14T10:08:49.531Z,1936.00
2023-03-14T10:12:49.635Z,1890.00
2023-03-14T10:16:49.559Z,1866.00
2023-03-14T10:20:49.445Z,1843.00
2023-03-14T10:24:49.510Z,1814.00
2023-03-14T10:28:49.921Z,1802.00
2023-03-14T10:32:50.042Z,1764.00
2023-03-14T10:36:49.412Z,1807.00
2023-03-14T10:40:49.418Z,1786.00
2023-03-14T10:44:49.419Z,1787.00
2023-03-14T10:48:49.506Z,1789.00
2023-03-14T10:53:02.119Z,1857.00
2023-03-14T10:56:50.433Z,1866.00
2023-03-14T11:00:49.014Z,1918.00
2023-03-14T11:04:48.923Z,1944.00
2023-03-14T11:08:48.714Z,1996.00
2023-03-14T11:12:48.525Z,2007.00
2023-03-14T11:16:49.761Z,2054.00
2023-03-14T11:20:48.184Z,2090.00
2023-03-14T11:24:48.177Z,2116.00
2023-03-14T11:28:48.134Z,2174.00
2023-03-14T11:32:48.173Z,2180.00
2023-03-14T11:36:48.444Z,2213.00
2023-03-14T11:40:48.934Z,2191.00
2023-03-14T11:44:48.060Z,2226.00
2023-03-14T11:48:48.022Z,2297.00
2023-03-14T11:52:48.065Z,2336.00
2023-03-14T11:56:47.902Z,2403.00
2023-03-14T12:00:47.694Z,2455.00
2023-03-14T12:04:49.078Z,2514.00
2023-03-14T12:08:47.273Z,2538.00
2023-03-14T12:12:47.024Z,2574.00
2023-03-14T12:16:46.802Z,2596.00
2023-03-14T12:20:46.763Z,2578.00
2023-03-14T12:24:46.495Z,2603.00
2023-03-14T12:28:46.237Z,2626.00
2023-03-14T12:32:46.003Z,2617.00
2023-03-14T12:36:45.614Z,2562.00
2023-03-14T12:40:45.457Z,2540.00
2023-03-14T12:44:45.155Z,2521.00
2023-03-14T12:48:44.986Z,2478.00
2023-03-14T12:52:46.379Z,2434.00
2023-03-14T12:56:44.454Z,2392.00
2023-03-14T13:00:44.314Z,2343.00
2023-03-14T13:04:44.039Z,2335.00
2023-03-14T13:08:44.303Z,2290.00
2023-03-14T13:12:43.469Z,2239.00
2023-03-14T13:16:43.528Z,2214.00
2023-03-14T13:20:43.010Z,2182.00
2023-03-14T13:24:42.984Z,2141.00
2023-03-14T13:28:42.662Z,2118.00
2023-03-14T13:32:42.546Z,2087.00
2023-03-14T13:36:42.184Z,2063.00
2023-03-14T13:40:42.000Z,2027.00
2023-03-14T13:44:41.818Z,2020.00
2023-03-14T13:48:41.575Z,1267.00
2023-03-14T13:52:41.427Z,972.00
2023-03-14T13:56:41.875Z,718.00
2023-03-14T14:00:41.211Z,600.00
2023-03-14T14:04:41.354Z,612.00
2023-03-14T14:08:41.423Z,598.00
2023-03-14T14:12:41.521Z,583.00
2023-03-14T14:16:41.506Z,569.00
2023-03-14T14:20:41.404Z,562.00
2023-03-14T14:24:41.495Z,543.00
2023-03-14T14:28:41.396Z,553.00
2023-03-14T14:32:41.412Z,514.00
2023-03-14T14:36:41.335Z,505.00
2023-03-14T14:40:41.359Z,503.00
2023-03-14T14:44:41.396Z,508.00
2023-03-14T14:48:41.432Z,500.00
2023-03-14T14:52:41.534Z,500.00
2023-03-14T14:56:41.581Z,518.00
2023-03-14T15:00:41.707Z,502.00
2023-03-14T15:04:41.794Z,520.00
2023-03-14T15:08:42.057Z,506.00
2023-03-14T15:12:42.063Z,508.00
2023-03-14T15:16:42.176Z,509.00
2023-03-14T15:20:42.325Z,503.00
2023-03-14T15:24:42.259Z,525.00
2023-03-14T15:28:42.148Z,505.00
2023-03-14T15:32:42.073Z,506.00
2023-03-14T15:36:41.968Z,536.00
2023-03-14T15:40:41.854Z,540.00
2023-03-14T15:44:41.776Z,549.00
2023-03-14T15:48:41.665Z,553.00
2023-03-14T15:52:41.525Z,547.00
2023-03-14T15:56:41.470Z,522.00
2023-03-14T16:00:41.369Z,529.00
2023-03-14T16:04:41.301Z,517.00
2023-03-14T16:08:41.139Z,502.00
2023-03-14T16:12:41.138Z,515.00
2023-03-14T16:16:41.162Z,518.00
2023-03-14T16:20:48.095Z,508.00
2023-03-14T16:24:41.975Z,508.00
2023-03-14T16:28:40.927Z,500.00
2023-03-14T16:32:40.892Z,526.00
2023-03-14T16:36:40.726Z,503.00
2023-03-14T16:40:40.642Z,510.00
2023-03-14T16:44:40.637Z,524.00
2023-03-14T16:48:40.572Z,539.00
2023-03-14T16:52:40.526Z,558.00
2023-03-14T16:56:40.567Z,574.00
2023-03-14T17:00:40.485Z,563.00
2023-03-14T17:04:40.420Z,566.00
2023-03-14T17:08:40.405Z,556.00
2023-03-14T17:12:40.700Z,569.00
2023-03-14T17:16:40.427Z,535.00
2023-03-14T17:20:40.346Z,504.00
2023-03-14T17:24:40.304Z,496.00
2023-03-14T17:28:40.268Z,507.00
2023-03-14T17:32:40.357Z,502.00
2023-03-14T17:36:40.252Z,510.00
2023-03-14T17:40:40.241Z,511.00
2023-03-14T17:44:40.229Z,508.00
2023-03-14T17:48:40.315Z,509.00
2023-03-14T17:52:40.408Z,508.00
2023-03-14T17:56:40.547Z,557.00
2023-03-14T18:00:40.661Z,497.00
2023-03-14T18:04:40.805Z,520.00
2023-03-14T18:08:40.700Z,501.00
2023-03-14T18:12:40.754Z,495.00
2023-03-14T18:16:40.770Z,509.00
2023-03-14T18:20:40.821Z,536.00
2023-03-14T18:24:40.883Z,505.00
2023-03-14T18:28:40.976Z,510.00
2023-03-14T18:32:41.193Z,512.00
2023-03-14T18:36:41.200Z,554.00
2023-03-14T18:40:41.303Z,556.00
2023-03-14T18:44:41.499Z,582.00
2023-03-14T18:48:41.702Z,722.00
2023-03-14T18:52:41.886Z,608.00
2023-03-14T18:56:42.139Z,646.00
2023-03-14T19:00:42.084Z,634.00
2023-03-14T19:04:42.037Z,652.00
2023-03-14T19:08:41.993Z,696.00
2023-03-14T19:12:41.943Z,659.00
2023-03-14T19:16:41.895Z,672.00
2023-03-14T19:20:41.856Z,636.00
2023-03-14T19:24:41.868Z,641.00
2023-03-14T19:28:41.834Z,651.00
2023-03-14T19:32:41.932Z,769.00
2023-03-14T19:36:41.795Z,883.00
2023-03-14T19:40:41.803Z,860.00
2023-03-14T19:44:41.757Z,898.00
2023-03-14T19:48:41.775Z,1035.00
2023-03-14T19:52:41.718Z,1169.00
2023-03-14T19:56:41.707Z,1134.00
2023-03-14T20:00:41.723Z,1245.00
2023-03-14T20:04:41.793Z,1221.00
2023-03-14T20:08:41.865Z,1371.00
2023-03-14T20:12:41.928Z,1417.00
2023-03-14T20:16:42.084Z,1411.00
2023-03-14T20:20:42.062Z,1402.00
2023-03-14T20:24:42.111Z,1369.00
2023-03-14T20:28:42.216Z,1395.00
2023-03-14T20:32:42.470Z,1411.00
2023-03-14T20:36:42.508Z,1370.00
2023-03-14T20:40:42.653Z,1333.00
2023-03-14T20:44:42.828Z,1358.00
2023-03-14T20:48:42.926Z,1368.00
2023-03-14T20:52:43.094Z,1349.00
2023-03-14T20:56:43.208Z,1439.00
2023-03-14T21:00:43.684Z,1420.00
2023-03-14T21:04:43.624Z,1497.00
2023-03-14T21:08:43.553Z,1449.00
2023-03-14T21:12:43.724Z,1456.00
2023-03-14T21:16:43.915Z,1441.00
2023-03-14T21:20:44.111Z,1511.00
2023-03-14T21:24:44.336Z,1524.00
2023-03-14T21:28:44.492Z,1409.00
2023-03-14T21:32:44.776Z,1368.00
2023-03-14T21:36:45.379Z,1385.00
2023-03-14T21:40:45.112Z,1365.00
2023-03-14T21:44:45.347Z,1387.00
2023-03-14T21:48:45.597Z,1372.00
2023-03-14T21:52:45.809Z,1325.00
2023-03-14T21:56:45.821Z,1275.00
2023-03-14T22:00:45.820Z,1349.00
2023-03-14T22:04:45.798Z,1434.00
2023-03-14T22:08:45.796Z,1426.00
2023-03-14T22:12:45.797Z,1400.00
2023-03-14T22:16:45.821Z,1426.00
2023-03-14T22:20:45.814Z,1642.00
2023-03-14T22:24:45.793Z,1669.00
2023-03-14T22:28:45.816Z,1696.00
2023-03-14T22:32:45.866Z,1642.00
2023-03-14T22:36:46.035Z,1514.00
2023-03-14T22:40:46.345Z,1472.00
2023-03-14T22:44:46.329Z,1281.00
2023-03-14T22:48:46.429Z,1270.00
2023-03-14T22:52:46.354Z,1184.00
2023-03-14T22:56:46.350Z,898.00
2023-03-14T23:00:46.427Z,752.00
2023-03-14T23:04:46.412Z,655.00
2023-03-14T23:08:46.440Z,664.00
2023-03-14T23:12:46.444Z,724.00
2023-03-14T23:16:46.492Z,914.00
2023-03-14T23:20:48.125Z,884.00
2023-03-14T23:24:46.569Z,734.00
2023-03-14T23:28:46.745Z,754.00
2023-03-14T23:32:46.817Z,845.00
2023-03-14T23:36:46.941Z,885.00
2023-03-14T23:40:47.083Z,843.00
2023-03-14T23:44:47.126Z,746.00
2023-03-14T23:48:47.492Z,732.00
2023-03-14T23:52:47.327Z,829.00
2023-03-14T23:56:47.432Z,790.00
